sensor_id;sensor_type;location;lat;lon;timestamp;temperature;humidity
57829;DHT22;43657;52.698;6.314;2022-10-26T00:01:12;9.10;99.90
57829;DHT22;43657;52.698;6.314;2022-10-26T00:03:38;9.00;99.90
57829;DHT22;43657;52.698;6.314;2022-10-26T00:06:19;9.00;99.90
57829;DHT22;43657;52.698;6.314;2022-10-26T00:08:46;8.90;99.90
57829;DHT22;43657;52.698;6.314;2022-10-26T00:11:12;8.90;99.90
57829;DHT22;43657;52.698;6.314;2022-10-26T00:13:39;8.90;99.90
57829;DHT22;43657;52.698;6.314;2022-10-26T00:16:23;8.90;99.90
57829;DHT22;43657;52.698;6.314;2022-10-26T00:18:49;8.80;99.90
57829;DHT22;43657;52.698;6.314;2022-10-26T00:21:15;8.80;99.90
57829;DHT22;43657;52.698;6.314;2022-10-26T00:23:41;8.80;99.90
57829;DHT22;43657;52.698;6.314;2022-10-26T00:26:07;8.80;99.90
57829;DHT22;43657;52.698;6.314;2022-10-26T00:28:33;8.80;99.90
57829;DHT22;43657;52.698;6.314;2022-10-26T00:31:04;8.70;99.90
57829;DHT22;43657;52.698;6.314;2022-10-26T00:33:30;8.70;99.90
57829;DHT22;43657;52.698;6.314;2022-10-26T00:35:56;8.70;99.90
57829;DHT22;43657;52.698;6.314;2022-10-26T00:38:22;8.70;99.90
57829;DHT22;43657;52.698;6.314;2022-10-26T00:40:48;8.70;99.90
57829;DHT22;43657;52.698;6.314;2022-10-26T00:43:31;8.70;99.90
57829;DHT22;43657;52.698;6.314;2022-10-26T00:45:58;8.80;99.90
57829;DHT22;43657;52.698;6.314;2022-10-26T00:48:36;8.70;99.90
57829;DHT22;43657;52.698;6.314;2022-10-26T00:51:19;8.70;99.90
57829;DHT22;43657;52.698;6.314;2022-10-26T00:53:47;8.70;99.90
57829;DHT22;43657;52.698;6.314;2022-10-26T00:56:13;8.70;99.90
57829;DHT22;43657;52.698;6.314;2022-10-26T00:58:39;8.70;99.90
57829;DHT22;43657;52.698;6.314;2022-10-26T01:01:05;8.70;99.90
57829;DHT22;43657;52.698;6.314;2022-10-26T01:03:32;8.60;99.90
57829;DHT22;43657;52.698;6.314;2022-10-26T01:05:59;8.70;99.90
57829;DHT22;43657;52.698;6.314;2022-10-26T01:08:25;8.60;99.90
57829;DHT22;43657;52.698;6.314;2022-10-26T01:10:53;8.70;99.90
57829;DHT22;43657;52.698;6.314;2022-10-26T01:13:20;8.70;99.90
57829;DHT22;43657;52.698;6.314;2022-10-26T01:21:29;8.70;99.90
57829;DHT22;43657;52.698;6.314;2022-10-26T01:35:27;8.70;99.90
57829;DHT22;43657;52.698;6.314;2022-10-26T01:37:58;8.70;99.90
57829;DHT22;43657;52.698;6.314;2022-10-26T01:43:04;8.80;99.90
57829;DHT22;43657;52.698;6.314;2022-10-26T01:45:33;8.70;99.90
57829;DHT22;43657;52.698;6.314;2022-10-26T01:50:30;8.80;99.90
57829;DHT22;43657;52.698;6.314;2022-10-26T01:52:56;8.70;99.90
57829;DHT22;43657;52.698;6.314;2022-10-26T02:04:15;8.70;99.90
57829;DHT22;43657;52.698;6.314;2022-10-26T02:09:31;8.70;99.90
57829;DHT22;43657;52.698;6.314;2022-10-26T02:12:04;8.70;99.90
57829;DHT22;43657;52.698;6.314;2022-10-26T02:14:48;8.80;99.90
57829;DHT22;43657;52.698;6.314;2022-10-26T02:17:24;8.80;99.90
57829;DHT22;43657;52.698;6.314;2022-10-26T02:20:00;8.80;99.90
57829;DHT22;43657;52.698;6.314;2022-10-26T02:22:48;8.80;99.90
57829;DHT22;43657;52.698;6.314;2022-10-26T02:25:31;8.80;99.90
57829;DHT22;43657;52.698;6.314;2022-10-26T02:28:01;8.80;99.90
57829;DHT22;43657;52.698;6.314;2022-10-26T02:30:29;8.80;99.90
57829;DHT22;43657;52.698;6.314;2022-10-26T02:32:57;8.80;99.90
57829;DHT22;43657;52.698;6.314;2022-10-26T02:35:27;8.80;99.90
57829;DHT22;43657;52.698;6.314;2022-10-26T02:37:55;8.80;99.90
57829;DHT22;43657;52.698;6.314;2022-10-26T02:40:25;8.80;99.90
57829;DHT22;43657;52.698;6.314;2022-10-26T02:42:52;8.80;99.90
57829;DHT22;43657;52.698;6.314;2022-10-26T02:45:26;8.80;99.90
57829;DHT22;43657;52.698;6.314;2022-10-26T02:47:53;8.80;99.90
57829;DHT22;43657;52.698;6.314;2022-10-26T02:50:23;8.80;99.90
57829;DHT22;43657;52.698;6.314;2022-10-26T02:55:24;8.90;99.90
57829;DHT22;43657;52.698;6.314;2022-10-26T02:57:57;8.90;99.90
57829;DHT22;43657;52.698;6.314;2022-10-26T03:00:23;9.00;99.90
57829;DHT22;43657;52.698;6.314;2022-10-26T03:02:54;9.00;99.90
57829;DHT22;43657;52.698;6.314;2022-10-26T03:05:29;9.00;99.90
57829;DHT22;43657;52.698;6.314;2022-10-26T03:07:57;9.10;99.90
57829;DHT22;43657;52.698;6.314;2022-10-26T03:10:23;9.10;99.90
57829;DHT22;43657;52.698;6.314;2022-10-26T03:12:49;9.10;99.90
57829;DHT22;43657;52.698;6.314;2022-10-26T03:15:15;9.10;99.90
57829;DHT22;43657;52.698;6.314;2022-10-26T03:17:41;9.10;99.90
57829;DHT22;43657;52.698;6.314;2022-10-26T03:20:07;9.10;99.90
57829;DHT22;43657;52.698;6.314;2022-10-26T03:22:33;9.10;99.90
57829;DHT22;43657;52.698;6.314;2022-10-26T03:24:58;9.10;99.90
57829;DHT22;43657;52.698;6.314;2022-10-26T03:27:24;9.10;99.90
57829;DHT22;43657;52.698;6.314;2022-10-26T03:29:51;9.10;99.90
57829;DHT22;43657;52.698;6.314;2022-10-26T03:32:17;9.10;99.90
57829;DHT22;43657;52.698;6.314;2022-10-26T03:34:43;9.10;99.90
57829;DHT22;43657;52.698;6.314;2022-10-26T03:37:08;9.10;99.90
57829;DHT22;43657;52.698;6.314;2022-10-26T03:39:34;9.20;99.90
57829;DHT22;43657;52.698;6.314;2022-10-26T03:41:59;9.10;99.90
57829;DHT22;43657;52.698;6.314;2022-10-26T03:44:25;9.10;99.90
57829;DHT22;43657;52.698;6.314;2022-10-26T03:46:50;9.10;99.90
57829;DHT22;43657;52.698;6.314;2022-10-26T03:49:16;9.10;99.90
57829;DHT22;43657;52.698;6.314;2022-10-26T03:51:41;9.10;99.90
57829;DHT22;43657;52.698;6.314;2022-10-26T03:54:07;9.10;99.90
57829;DHT22;43657;52.698;6.314;2022-10-26T03:56:33;9.10;99.90
57829;DHT22;43657;52.698;6.314;2022-10-26T03:58:59;9.00;99.90
57829;DHT22;43657;52.698;6.314;2022-10-26T04:01:24;9.00;99.90
57829;DHT22;43657;52.698;6.314;2022-10-26T04:03:50;9.00;99.90
57829;DHT22;43657;52.698;6.314;2022-10-26T04:06:15;9.00;99.90
57829;DHT22;43657;52.698;6.314;2022-10-26T04:08:41;9.00;99.90
57829;DHT22;43657;52.698;6.314;2022-10-26T04:11:07;9.00;99.90
57829;DHT22;43657;52.698;6.314;2022-10-26T04:13:32;9.10;99.90
57829;DHT22;43657;52.698;6.314;2022-10-26T04:15:58;9.10;99.90
57829;DHT22;43657;52.698;6.314;2022-10-26T04:18:24;9.10;99.90
57829;DHT22;43657;52.698;6.314;2022-10-26T04:20:49;9.10;99.90
57829;DHT22;43657;52.698;6.314;2022-10-26T04:23:16;9.20;99.90
57829;DHT22;43657;52.698;6.314;2022-10-26T04:25:42;9.20;99.90
57829;DHT22;43657;52.698;6.314;2022-10-26T04:28:10;9.20;99.90
57829;DHT22;43657;52.698;6.314;2022-10-26T04:30:37;9.20;99.90
57829;DHT22;43657;52.698;6.314;2022-10-26T04:33:04;9.30;99.90
57829;DHT22;43657;52.698;6.314;2022-10-26T04:35:30;9.30;99.90
57829;DHT22;43657;52.698;6.314;2022-10-26T04:37:57;9.30;99.90
57829;DHT22;43657;52.698;6.314;2022-10-26T04:40:23;9.30;99.90
57829;DHT22;43657;52.698;6.314;2022-10-26T04:42:49;9.40;99.90
57829;DHT22;43657;52.698;6.314;2022-10-26T04:45:15;9.30;99.90
57829;DHT22;43657;52.698;6.314;2022-10-26T04:47:42;9.40;99.90
57829;DHT22;43657;52.698;6.314;2022-10-26T04:50:09;9.40;99.90
57829;DHT22;43657;52.698;6.314;2022-10-26T04:52:35;9.40;99.90
57829;DHT22;43657;52.698;6.314;2022-10-26T04:55:01;9.40;99.90
57829;DHT22;43657;52.698;6.314;2022-10-26T04:57:31;9.50;99.90
57829;DHT22;43657;52.698;6.314;2022-10-26T04:59:58;9.50;99.90
57829;DHT22;43657;52.698;6.314;2022-10-26T05:02:23;9.50;99.90
57829;DHT22;43657;52.698;6.314;2022-10-26T05:04:49;9.60;99.90
57829;DHT22;43657;52.698;6.314;2022-10-26T05:07:14;9.60;99.90
57829;DHT22;43657;52.698;6.314;2022-10-26T05:09:40;9.60;99.90
57829;DHT22;43657;52.698;6.314;2022-10-26T05:12:05;9.60;99.90
57829;DHT22;43657;52.698;6.314;2022-10-26T05:14:31;9.60;99.90
57829;DHT22;43657;52.698;6.314;2022-10-26T05:16:56;9.60;99.90
57829;DHT22;43657;52.698;6.314;2022-10-26T05:19:22;9.70;99.90
57829;DHT22;43657;52.698;6.314;2022-10-26T05:21:48;9.70;99.90
57829;DHT22;43657;52.698;6.314;2022-10-26T05:24:13;9.70;99.90
57829;DHT22;43657;52.698;6.314;2022-10-26T05:26:39;9.80;99.90
57829;DHT22;43657;52.698;6.314;2022-10-26T05:29:04;9.80;99.90
57829;DHT22;43657;52.698;6.314;2022-10-26T05:31:30;9.80;99.90
57829;DHT22;43657;52.698;6.314;2022-10-26T05:33:55;9.80;99.90
57829;DHT22;43657;52.698;6.314;2022-10-26T05:36:21;9.80;99.90
57829;DHT22;43657;52.698;6.314;2022-10-26T05:38:47;9.90;99.90
57829;DHT22;43657;52.698;6.314;2022-10-26T05:41:12;9.90;99.90
57829;DHT22;43657;52.698;6.314;2022-10-26T05:43:38;9.90;99.90
57829;DHT22;43657;52.698;6.314;2022-10-26T05:46:04;9.90;99.90
57829;DHT22;43657;52.698;6.314;2022-10-26T05:48:29;9.90;99.90
57829;DHT22;43657;52.698;6.314;2022-10-26T05:50:59;10.00;99.90
57829;DHT22;43657;52.698;6.314;2022-10-26T05:53:25;9.90;99.90
57829;DHT22;43657;52.698;6.314;2022-10-26T05:55:51;9.90;99.90
57829;DHT22;43657;52.698;6.314;2022-10-26T05:58:17;9.90;99.90
57829;DHT22;43657;52.698;6.314;2022-10-26T06:01:21;10.00;99.90
57829;DHT22;43657;52.698;6.314;2022-10-26T06:07:00;10.00;99.90
57829;DHT22;43657;52.698;6.314;2022-10-26T06:09:27;10.00;99.90
57829;DHT22;43657;52.698;6.314;2022-10-26T06:11:53;10.00;99.90
57829;DHT22;43657;52.698;6.314;2022-10-26T06:14:18;10.00;99.90
57829;DHT22;43657;52.698;6.314;2022-10-26T06:20:02;10.00;99.90
57829;DHT22;43657;52.698;6.314;2022-10-26T06:25:45;10.10;99.90
57829;DHT22;43657;52.698;6.314;2022-10-26T06:28:25;10.10;99.90
57829;DHT22;43657;52.698;6.314;2022-10-26T06:30:54;10.10;99.90
57829;DHT22;43657;52.698;6.314;2022-10-26T06:33:20;10.10;99.90
57829;DHT22;43657;52.698;6.314;2022-10-26T06:36:21;10.10;99.90
57829;DHT22;43657;52.698;6.314;2022-10-26T06:38:49;10.20;99.90
57829;DHT22;43657;52.698;6.314;2022-10-26T06:41:17;10.20;99.90
57829;DHT22;43657;52.698;6.314;2022-10-26T06:43:44;10.20;99.90
57829;DHT22;43657;52.698;6.314;2022-10-26T06:51:57;10.30;99.90
57829;DHT22;43657;52.698;6.314;2022-10-26T06:54:28;10.30;99.90
57829;DHT22;43657;52.698;6.314;2022-10-26T06:56:55;10.30;99.90
57829;DHT22;43657;52.698;6.314;2022-10-26T06:59:45;10.30;99.90
57829;DHT22;43657;52.698;6.314;2022-10-26T07:02:12;10.30;99.90
57829;DHT22;43657;52.698;6.314;2022-10-26T07:04:42;10.40;99.90
57829;DHT22;43657;52.698;6.314;2022-10-26T07:07:11;10.40;99.90
57829;DHT22;43657;52.698;6.314;2022-10-26T07:09:38;10.40;99.90
57829;DHT22;43657;52.698;6.314;2022-10-26T07:12:04;10.50;99.90
57829;DHT22;43657;52.698;6.314;2022-10-26T07:14:30;10.50;99.90
57829;DHT22;43657;52.698;6.314;2022-10-26T07:16:56;10.60;99.90
57829;DHT22;43657;52.698;6.314;2022-10-26T07:19:22;10.60;99.90
57829;DHT22;43657;52.698;6.314;2022-10-26T07:21:48;10.60;99.90
57829;DHT22;43657;52.698;6.314;2022-10-26T07:24:13;10.70;99.90
57829;DHT22;43657;52.698;6.314;2022-10-26T07:26:39;10.70;99.90
57829;DHT22;43657;52.698;6.314;2022-10-26T07:29:04;10.80;99.90
57829;DHT22;43657;52.698;6.314;2022-10-26T07:31:30;10.80;99.90
57829;DHT22;43657;52.698;6.314;2022-10-26T07:33:55;10.90;99.90
57829;DHT22;43657;52.698;6.314;2022-10-26T07:36:21;10.90;99.90
57829;DHT22;43657;52.698;6.314;2022-10-26T07:38:50;11.00;99.90
57829;DHT22;43657;52.698;6.314;2022-10-26T07:41:16;11.10;99.90
57829;DHT22;43657;52.698;6.314;2022-10-26T07:43:41;11.10;99.90
57829;DHT22;43657;52.698;6.314;2022-10-26T07:46:09;11.20;99.90
57829;DHT22;43657;52.698;6.314;2022-10-26T07:48:35;11.30;99.90
57829;DHT22;43657;52.698;6.314;2022-10-26T07:51:00;11.40;99.90
57829;DHT22;43657;52.698;6.314;2022-10-26T07:53:27;11.50;99.90
57829;DHT22;43657;52.698;6.314;2022-10-26T07:55:54;11.60;99.90
57829;DHT22;43657;52.698;6.314;2022-10-26T07:58:20;11.60;99.90
57829;DHT22;43657;52.698;6.314;2022-10-26T08:00:49;11.70;99.90
57829;DHT22;43657;52.698;6.314;2022-10-26T08:03:15;11.80;99.90
57829;DHT22;43657;52.698;6.314;2022-10-26T08:05:41;11.80;99.90
57829;DHT22;43657;52.698;6.314;2022-10-26T08:08:07;11.80;99.90
57829;DHT22;43657;52.698;6.314;2022-10-26T08:10:32;11.80;99.90
57829;DHT22;43657;52.698;6.314;2022-10-26T08:12:58;11.80;99.90
57829;DHT22;43657;52.698;6.314;2022-10-26T08:15:23;11.90;99.90
57829;DHT22;43657;52.698;6.314;2022-10-26T08:17:49;11.80;99.90
57829;DHT22;43657;52.698;6.314;2022-10-26T08:20:14;11.80;99.90
57829;DHT22;43657;52.698;6.314;2022-10-26T08:22:40;11.90;99.90
57829;DHT22;43657;52.698;6.314;2022-10-26T08:25:06;11.80;99.90
57829;DHT22;43657;52.698;6.314;2022-10-26T08:27:32;11.90;99.90
57829;DHT22;43657;52.698;6.314;2022-10-26T08:29:57;12.00;99.90
57829;DHT22;43657;52.698;6.314;2022-10-26T08:32:23;12.00;99.90
57829;DHT22;43657;52.698;6.314;2022-10-26T08:34:48;12.10;99.90
57829;DHT22;43657;52.698;6.314;2022-10-26T08:37:14;12.10;99.90
57829;DHT22;43657;52.698;6.314;2022-10-26T08:39:39;12.20;99.90
57829;DHT22;43657;52.698;6.314;2022-10-26T08:42:11;12.30;99.90
57829;DHT22;43657;52.698;6.314;2022-10-26T08:45:02;12.40;99.90
57829;DHT22;43657;52.698;6.314;2022-10-26T08:47:36;12.50;99.90
57829;DHT22;43657;52.698;6.314;2022-10-26T08:50:18;12.60;99.90
57829;DHT22;43657;52.698;6.314;2022-10-26T08:55:47;12.90;99.90
57829;DHT22;43657;52.698;6.314;2022-10-26T08:58:17;13.00;99.90
57829;DHT22;43657;52.698;6.314;2022-10-26T09:00:46;13.10;99.90
57829;DHT22;43657;52.698;6.314;2022-10-26T09:03:14;13.20;99.90
57829;DHT22;43657;52.698;6.314;2022-10-26T09:22:51;14.00;99.90
57829;DHT22;43657;52.698;6.314;2022-10-26T09:25:21;14.20;99.90
57829;DHT22;43657;52.698;6.314;2022-10-26T09:27:56;14.30;99.90
57829;DHT22;43657;52.698;6.314;2022-10-26T09:30:23;14.60;99.90
57829;DHT22;43657;52.698;6.314;2022-10-26T09:32:49;14.90;99.90
57829;DHT22;43657;52.698;6.314;2022-10-26T09:35:25;15.10;99.90
57829;DHT22;43657;52.698;6.314;2022-10-26T09:40:32;15.60;99.90
57829;DHT22;43657;52.698;6.314;2022-10-26T09:43:22;15.80;99.90
57829;DHT22;43657;52.698;6.314;2022-10-26T09:45:52;16.00;99.90
57829;DHT22;43657;52.698;6.314;2022-10-26T09:48:47;16.20;99.90
57829;DHT22;43657;52.698;6.314;2022-10-26T09:51:15;16.30;99.90
57829;DHT22;43657;52.698;6.314;2022-10-26T09:53:41;16.40;99.90
57829;DHT22;43657;52.698;6.314;2022-10-26T09:56:09;16.50;99.90
57829;DHT22;43657;52.698;6.314;2022-10-26T09:58:40;16.60;99.90
57829;DHT22;43657;52.698;6.314;2022-10-26T10:01:29;16.80;99.90
57829;DHT22;43657;52.698;6.314;2022-10-26T10:06:42;17.00;99.90
57829;DHT22;43657;52.698;6.314;2022-10-26T10:11:44;17.20;99.90
57829;DHT22;43657;52.698;6.314;2022-10-26T10:14:23;17.20;99.90
57829;DHT22;43657;52.698;6.314;2022-10-26T10:17:00;17.20;99.90
57829;DHT22;43657;52.698;6.314;2022-10-26T10:19:34;17.30;99.90
57829;DHT22;43657;52.698;6.314;2022-10-26T10:22:11;17.30;99.90
57829;DHT22;43657;52.698;6.314;2022-10-26T10:24:56;17.40;99.90
57829;DHT22;43657;52.698;6.314;2022-10-26T10:27:23;17.60;99.90
57829;DHT22;43657;52.698;6.314;2022-10-26T10:29:54;17.70;99.90
57829;DHT22;43657;52.698;6.314;2022-10-26T10:32:23;18.00;99.90
57829;DHT22;43657;52.698;6.314;2022-10-26T10:34:51;18.10;99.90
57829;DHT22;43657;52.698;6.314;2022-10-26T10:39:48;17.90;99.90
57829;DHT22;43657;52.698;6.314;2022-10-26T10:42:21;17.90;99.90
57829;DHT22;43657;52.698;6.314;2022-10-26T10:44:51;17.80;99.90
57829;DHT22;43657;52.698;6.314;2022-10-26T10:47:22;17.90;99.90
57829;DHT22;43657;52.698;6.314;2022-10-26T10:49:53;17.80;99.90
57829;DHT22;43657;52.698;6.314;2022-10-26T10:52:32;17.70;99.90
57829;DHT22;43657;52.698;6.314;2022-10-26T11:00:23;17.60;99.90
57829;DHT22;43657;52.698;6.314;2022-10-26T11:05:58;17.70;99.90
57829;DHT22;43657;52.698;6.314;2022-10-26T11:11:11;17.80;99.90
57829;DHT22;43657;52.698;6.314;2022-10-26T11:16:42;17.90;99.90
57829;DHT22;43657;52.698;6.314;2022-10-26T11:22:15;18.20;99.90
57829;DHT22;43657;52.698;6.314;2022-10-26T11:24:48;18.40;99.90
57829;DHT22;43657;52.698;6.314;2022-10-26T11:27:17;18.40;99.90
57829;DHT22;43657;52.698;6.314;2022-10-26T11:30:01;18.50;99.90
57829;DHT22;43657;52.698;6.314;2022-10-26T11:32:43;18.50;99.90
57829;DHT22;43657;52.698;6.314;2022-10-26T11:37:54;18.60;99.90
57829;DHT22;43657;52.698;6.314;2022-10-26T11:43:04;18.80;99.90
57829;DHT22;43657;52.698;6.314;2022-10-26T11:45:37;18.90;99.90
57829;DHT22;43657;52.698;6.314;2022-10-26T11:48:16;19.00;99.90
57829;DHT22;43657;52.698;6.314;2022-10-26T11:50:51;19.10;99.90
57829;DHT22;43657;52.698;6.314;2022-10-26T11:53:29;19.00;99.90
57829;DHT22;43657;52.698;6.314;2022-10-26T11:55:56;19.10;99.90
57829;DHT22;43657;52.698;6.314;2022-10-26T11:58:24;19.10;99.90
57829;DHT22;43657;52.698;6.314;2022-10-26T12:01:03;19.10;99.90
57829;DHT22;43657;52.698;6.314;2022-10-26T12:03:35;19.20;99.90
57829;DHT22;43657;52.698;6.314;2022-10-26T12:06:02;19.20;99.90
57829;DHT22;43657;52.698;6.314;2022-10-26T12:08:42;19.30;99.90
57829;DHT22;43657;52.698;6.314;2022-10-26T12:17:21;19.50;99.90
57829;DHT22;43657;52.698;6.314;2022-10-26T12:19:54;19.60;99.90
57829;DHT22;43657;52.698;6.314;2022-10-26T12:22:25;19.60;99.90
57829;DHT22;43657;52.698;6.314;2022-10-26T12:25:07;19.50;99.90
57829;DHT22;43657;52.698;6.314;2022-10-26T12:35:28;19.10;99.90
57829;DHT22;43657;52.698;6.314;2022-10-26T12:37:49;19.10;99.90
57829;DHT22;43657;52.698;6.314;2022-10-26T12:42:57;19.30;99.90
57829;DHT22;43657;52.698;6.314;2022-10-26T12:45:35;19.30;99.90
57829;DHT22;43657;52.698;6.314;2022-10-26T12:48:03;19.30;99.90
57829;DHT22;43657;52.698;6.314;2022-10-26T12:50:29;19.10;99.90
57829;DHT22;43657;52.698;6.314;2022-10-26T12:53:06;19.10;99.90
57829;DHT22;43657;52.698;6.314;2022-10-26T12:58:35;18.90;99.90
57829;DHT22;43657;52.698;6.314;2022-10-26T13:08:51;18.90;99.90
57829;DHT22;43657;52.698;6.314;2022-10-26T13:11:25;19.00;99.90
57829;DHT22;43657;52.698;6.314;2022-10-26T13:13:56;19.00;99.90
57829;DHT22;43657;52.698;6.314;2022-10-26T13:16:25;19.00;99.90
57829;DHT22;43657;52.698;6.314;2022-10-26T13:18:51;19.00;99.90
57829;DHT22;43657;52.698;6.314;2022-10-26T13:21:18;19.00;99.90
57829;DHT22;43657;52.698;6.314;2022-10-26T13:26:18;18.90;99.90
57829;DHT22;43657;52.698;6.314;2022-10-26T13:28:52;18.90;99.90
57829;DHT22;43657;52.698;6.314;2022-10-26T13:39:19;18.60;99.90
57829;DHT22;43657;52.698;6.314;2022-10-26T13:41:47;18.60;99.90
57829;DHT22;43657;52.698;6.314;2022-10-26T13:44:21;18.50;99.90
57829;DHT22;43657;52.698;6.314;2022-10-26T13:46:52;18.50;99.90
57829;DHT22;43657;52.698;6.314;2022-10-26T13:49:26;18.50;99.90
57829;DHT22;43657;52.698;6.314;2022-10-26T13:51:53;18.40;99.90
57829;DHT22;43657;52.698;6.314;2022-10-26T13:54:30;18.30;99.90
57829;DHT22;43657;52.698;6.314;2022-10-26T13:59:30;18.30;99.90
57829;DHT22;43657;52.698;6.314;2022-10-26T14:02:15;18.20;99.90
57829;DHT22;43657;52.698;6.314;2022-10-26T14:04:45;18.20;99.90
57829;DHT22;43657;52.698;6.314;2022-10-26T14:07:19;18.10;99.90
57829;DHT22;43657;52.698;6.314;2022-10-26T14:09:59;18.10;99.90
57829;DHT22;43657;52.698;6.314;2022-10-26T14:12:26;18.10;99.90
57829;DHT22;43657;52.698;6.314;2022-10-26T14:15:25;18.10;99.90
57829;DHT22;43657;52.698;6.314;2022-10-26T14:17:53;18.00;99.90
57829;DHT22;43657;52.698;6.314;2022-10-26T14:20:20;18.00;99.90
57829;DHT22;43657;52.698;6.314;2022-10-26T14:22:47;18.00;99.90
57829;DHT22;43657;52.698;6.314;2022-10-26T14:25:28;17.90;99.90
57829;DHT22;43657;52.698;6.314;2022-10-26T14:27:56;17.80;99.90
57829;DHT22;43657;52.698;6.314;2022-10-26T14:30:31;17.80;99.90
57829;DHT22;43657;52.698;6.314;2022-10-26T14:32:57;17.80;99.90
57829;DHT22;43657;52.698;6.314;2022-10-26T14:35:33;17.70;99.90
57829;DHT22;43657;52.698;6.314;2022-10-26T14:38:02;17.70;99.90
57829;DHT22;43657;52.698;6.314;2022-10-26T14:40:32;17.60;99.90
57829;DHT22;43657;52.698;6.314;2022-10-26T14:43:00;17.50;99.90
57829;DHT22;43657;52.698;6.314;2022-10-26T14:47:53;17.30;99.90
57829;DHT22;43657;52.698;6.314;2022-10-26T14:50:21;17.20;99.90
57829;DHT22;43657;52.698;6.314;2022-10-26T14:53:14;17.20;99.90
57829;DHT22;43657;52.698;6.314;2022-10-26T14:55:48;17.10;99.90
57829;DHT22;43657;52.698;6.314;2022-10-26T14:58:33;17.00;99.90
57829;DHT22;43657;52.698;6.314;2022-10-26T15:03:43;16.90;99.90
57829;DHT22;43657;52.698;6.314;2022-10-26T15:08:58;16.90;99.90
57829;DHT22;43657;52.698;6.314;2022-10-26T15:11:27;16.80;99.90
57829;DHT22;43657;52.698;6.314;2022-10-26T15:13:54;16.80;99.90
57829;DHT22;43657;52.698;6.314;2022-10-26T15:16:23;16.70;99.90
57829;DHT22;43657;52.698;6.314;2022-10-26T15:18:55;16.80;99.90
57829;DHT22;43657;52.698;6.314;2022-10-26T15:21:42;16.70;99.90
57829;DHT22;43657;52.698;6.314;2022-10-26T15:24:25;16.60;99.90
57829;DHT22;43657;52.698;6.314;2022-10-26T15:26:52;16.60;99.90
57829;DHT22;43657;52.698;6.314;2022-10-26T15:32:01;16.40;99.90
57829;DHT22;43657;52.698;6.314;2022-10-26T15:34:26;16.40;99.90
57829;DHT22;43657;52.698;6.314;2022-10-26T15:36:52;16.30;99.90
57829;DHT22;43657;52.698;6.314;2022-10-26T15:39:18;16.30;99.90
57829;DHT22;43657;52.698;6.314;2022-10-26T15:41:45;16.30;99.90
57829;DHT22;43657;52.698;6.314;2022-10-26T15:44:13;16.30;99.90
57829;DHT22;43657;52.698;6.314;2022-10-26T15:46:41;16.20;99.90
57829;DHT22;43657;52.698;6.314;2022-10-26T15:49:17;16.20;99.90
57829;DHT22;43657;52.698;6.314;2022-10-26T15:51:44;16.20;99.90
57829;DHT22;43657;52.698;6.314;2022-10-26T15:54:12;16.20;99.90
57829;DHT22;43657;52.698;6.314;2022-10-26T15:56:38;16.10;99.90
57829;DHT22;43657;52.698;6.314;2022-10-26T15:59:14;16.10;99.90
57829;DHT22;43657;52.698;6.314;2022-10-26T16:01:41;16.00;99.90
57829;DHT22;43657;52.698;6.314;2022-10-26T16:04:08;16.00;99.90
57829;DHT22;43657;52.698;6.314;2022-10-26T16:06:35;15.90;99.90
57829;DHT22;43657;52.698;6.314;2022-10-26T16:09:03;15.90;99.90
57829;DHT22;43657;52.698;6.314;2022-10-26T16:11:29;15.80;99.90
57829;DHT22;43657;52.698;6.314;2022-10-26T16:13:55;15.70;99.90
57829;DHT22;43657;52.698;6.314;2022-10-26T16:16:20;15.80;99.90
57829;DHT22;43657;52.698;6.314;2022-10-26T16:18:47;15.80;99.90
57829;DHT22;43657;52.698;6.314;2022-10-26T16:21:18;15.80;99.90
57829;DHT22;43657;52.698;6.314;2022-10-26T16:23:46;15.80;99.90
57829;DHT22;43657;52.698;6.314;2022-10-26T16:26:12;15.80;99.90
57829;DHT22;43657;52.698;6.314;2022-10-26T16:28:38;15.70;99.90
57829;DHT22;43657;52.698;6.314;2022-10-26T16:31:06;15.80;99.90
57829;DHT22;43657;52.698;6.314;2022-10-26T16:33:33;15.80;99.90
57829;DHT22;43657;52.698;6.314;2022-10-26T16:36:00;15.70;99.90
57829;DHT22;43657;52.698;6.314;2022-10-26T16:38:26;15.70;99.90
57829;DHT22;43657;52.698;6.314;2022-10-26T16:41:12;15.70;99.90
57829;DHT22;43657;52.698;6.314;2022-10-26T16:43:40;15.70;99.90
57829;DHT22;43657;52.698;6.314;2022-10-26T16:46:11;15.70;99.90
57829;DHT22;43657;52.698;6.314;2022-10-26T16:48:39;15.70;99.90
57829;DHT22;43657;52.698;6.314;2022-10-26T16:51:11;15.70;99.90
57829;DHT22;43657;52.698;6.314;2022-10-26T16:53:37;15.70;99.90
57829;DHT22;43657;52.698;6.314;2022-10-26T16:56:05;15.70;99.90
57829;DHT22;43657;52.698;6.314;2022-10-26T16:58:31;15.70;99.90
57829;DHT22;43657;52.698;6.314;2022-10-26T17:00:57;15.70;99.90
57829;DHT22;43657;52.698;6.314;2022-10-26T17:03:23;15.60;99.90
57829;DHT22;43657;52.698;6.314;2022-10-26T17:05:57;15.60;99.90
57829;DHT22;43657;52.698;6.314;2022-10-26T17:08:23;15.60;99.90
57829;DHT22;43657;52.698;6.314;2022-10-26T17:10:49;15.50;99.90
57829;DHT22;43657;52.698;6.314;2022-10-26T17:13:14;15.50;99.90
57829;DHT22;43657;52.698;6.314;2022-10-26T17:15:40;15.50;99.90
57829;DHT22;43657;52.698;6.314;2022-10-26T17:18:05;15.40;99.90
57829;DHT22;43657;52.698;6.314;2022-10-26T17:20:32;15.30;99.90
57829;DHT22;43657;52.698;6.314;2022-10-26T17:22:58;15.30;99.90
57829;DHT22;43657;52.698;6.314;2022-10-26T17:25:23;15.20;99.90
57829;DHT22;43657;52.698;6.314;2022-10-26T17:27:49;15.10;99.90
57829;DHT22;43657;52.698;6.314;2022-10-26T17:30:14;15.20;99.90
57829;DHT22;43657;52.698;6.314;2022-10-26T17:32:40;15.10;99.90
57829;DHT22;43657;52.698;6.314;2022-10-26T17:35:06;15.00;99.90
57829;DHT22;43657;52.698;6.314;2022-10-26T17:37:33;14.90;99.90
57829;DHT22;43657;52.698;6.314;2022-10-26T17:39:59;14.90;99.90
57829;DHT22;43657;52.698;6.314;2022-10-26T17:42:25;14.80;99.90
57829;DHT22;43657;52.698;6.314;2022-10-26T17:44:50;14.80;99.90
57829;DHT22;43657;52.698;6.314;2022-10-26T17:47:16;14.80;99.90
57829;DHT22;43657;52.698;6.314;2022-10-26T17:49:41;14.70;99.90
57829;DHT22;43657;52.698;6.314;2022-10-26T17:52:07;14.70;99.90
57829;DHT22;43657;52.698;6.314;2022-10-26T17:54:32;14.70;99.90
57829;DHT22;43657;52.698;6.314;2022-10-26T17:56:58;14.60;99.90
57829;DHT22;43657;52.698;6.314;2022-10-26T17:59:25;14.60;99.90
57829;DHT22;43657;52.698;6.314;2022-10-26T18:01:50;14.60;99.90
57829;DHT22;43657;52.698;6.314;2022-10-26T18:04:16;14.50;99.90
57829;DHT22;43657;52.698;6.314;2022-10-26T18:06:41;14.50;99.90
57829;DHT22;43657;52.698;6.314;2022-10-26T18:09:07;14.60;99.90
57829;DHT22;43657;52.698;6.314;2022-10-26T18:11:33;14.50;99.90
57829;DHT22;43657;52.698;6.314;2022-10-26T18:13:58;14.40;99.90
57829;DHT22;43657;52.698;6.314;2022-10-26T18:16:25;14.40;99.90
57829;DHT22;43657;52.698;6.314;2022-10-26T18:18:57;14.30;99.90
57829;DHT22;43657;52.698;6.314;2022-10-26T18:21:25;14.30;99.90
57829;DHT22;43657;52.698;6.314;2022-10-26T18:23:54;14.20;99.90